KNTD/NTD METAR and TAF weather

Enter ICAO airport designator
Station Type Date Time Source
KNTD METAR 2022/12/08 13:55 UTC NOAA

KNTD 081355Z 01006KT 10SM FEW025 06/04 A3029 RMK AO2 SLP259 T00560044 $


Station Type Date Time Source
KNTD Decoded METAR 2022/12/08 13:55 UTC NOAA

NAWCWPNS POINT MUGU, CA, CA, United States (KNTD) 34-07N 119-07W 2M
Dec 08, 2022 - 08:55 AM EST / 2022.12.08 1355 UTC
Wind: from the N (010 degrees) at 7 MPH (6 KT):0
Visibility: 10 mile(s):0
Sky conditions: mostly clear
Temperature: 42.1 F (5.6 C)
Dew Point: 39.9 F (4.4 C)
Relative Humidity: 91%
Pressure (altimeter): 30.29 in. Hg (1025 hPa)
ob: KNTD 081355Z 01006KT 10SM FEW025 06/04 A3029 RMK AO2 SLP259 T00560044
cycle: 14

Station Type Date Time Source
KNTD TAF 2022/12/08 07:15 UTC NOAA

TAF KNTD 0807/0907 VRB06KT 9999 FEW015 QNH3019INS
FM081000 02008KT 9999 FEW020 SCT045 QNH3022INS
TEMPO 0810/0815 VRB06KT SCT020 BKN030
FM082300 29009G17KT 9999 FEW020 SCT120 QNH3023INS AUTOMATED SENSOR METWATCH 0807 TIL 0814 T07/0812Z T17/0822Z FS30165

Example: see airport list